Linthicum Heights, Maryland
Current Conditions -  °F | °C
As of 10:54 PM on Saturday 24 Jan 2015 (Local Time) from KBWI Reporting Station
Broken Clouds Broken Clouds  
Wind Chill: 29°   Ceiling: 6500
Heat Index: 37°   Visibility: 10mi
Dew Point: 26°   Wind: 12mph
Humidity: 65%   Direction: 280°W
Pressure: 29.62"   Gusts: 21mph
Location:  39.2°N, 76.66°W
Report Text: KBWI 250354Z 28010G18KT 10SM FEW037 BKN065 03/M03 A2962 RMK AO2 SLP032 T00281033
Loading
Personal Weather Stations






























Interactive Weather Map New forecast layout! Learn more

10-Day Weather Forecast

Advertisements
Track Severe Weather on mobile